createdAt,value
2022-12-24T00:00:06.976Z,100357.72
2022-12-24T00:02:33.804Z,100385.16
2022-12-24T00:05:01.287Z,100298.09
2022-12-24T00:07:28.983Z,100398.44
2022-12-24T00:09:55.639Z,100367.34
2022-12-24T00:12:22.392Z,100372.66
2022-12-24T00:14:48.887Z,100395.72
2022-12-24T00:17:15.563Z,100410.84
2022-12-24T00:19:43.220Z,100390.47
2022-12-24T00:22:10.009Z,100411.78
2022-12-24T00:24:36.535Z,100380.66
2022-12-24T00:27:03.579Z,100393.09
2022-12-24T00:29:30.152Z,100348.66
2022-12-24T00:31:56.714Z,100308.66
2022-12-24T00:34:24.696Z,100317.50
2022-12-24T00:36:51.612Z,100396.56
2022-12-24T00:39:18.696Z,100423.19
2022-12-24T00:41:45.238Z,100432.13
2022-12-24T00:44:11.902Z,100406.34
2022-12-24T00:46:40.940Z,100369.88
2022-12-24T00:49:08.576Z,100432.91
2022-12-24T00:51:35.966Z,100448.00
2022-12-24T00:54:03.333Z,100412.44
2022-12-24T00:56:30.295Z,100395.53
2022-12-24T00:58:57.134Z,100447.06
2022-12-24T01:01:24.857Z,100433.75
2022-12-24T01:03:52.283Z,100362.63
2022-12-24T01:06:21.736Z,100463.91
2022-12-24T01:08:51.368Z,100479.88
2022-12-24T01:11:18.167Z,100436.38
2022-12-24T01:13:44.709Z,100472.81
2022-12-24T01:16:17.868Z,100486.06
2022-12-24T01:18:44.561Z,100488.72
2022-12-24T01:21:11.170Z,100496.69
2022-12-24T01:23:37.847Z,100405.09
2022-12-24T01:26:05.394Z,100424.59
2022-12-24T01:28:33.042Z,100414.81
2022-12-24T01:31:00.853Z,100489.47
2022-12-24T01:33:30.642Z,100476.09
2022-12-24T01:35:57.220Z,100485.91
2022-12-24T01:38:23.805Z,100487.75
2022-12-24T01:41:08.770Z,100496.59
2022-12-24T01:43:35.400Z,100505.44
2022-12-24T01:46:05.863Z,100454.69
2022-12-24T01:48:47.106Z,100527.63
2022-12-24T01:51:30.610Z,100516.09
2022-12-24T01:54:10.112Z,100468.91
2022-12-24T01:56:42.684Z,100539.13
2022-12-24T01:59:13.167Z,100545.38
2022-12-24T02:01:39.863Z,100544.47
2022-12-24T02:04:19.677Z,100499.94
2022-12-24T02:06:46.250Z,100536.28
2022-12-24T02:09:12.816Z,100540.66
2022-12-24T02:11:43.912Z,100551.16
2022-12-24T02:14:12.233Z,100487.84
2022-12-24T02:16:50.405Z,100497.50
2022-12-24T02:19:42.328Z,100579.22
2022-12-24T02:22:17.990Z,100570.16
2022-12-24T02:25:02.628Z,100552.16
2022-12-24T02:27:55.731Z,100590.47
2022-12-24T02:30:23.439Z,100586.94
2022-12-24T02:33:02.126Z,100586.06
2022-12-24T02:35:44.542Z,100585.34
2022-12-24T02:38:22.116Z,100566.59
2022-12-24T02:41:10.529Z,100577.25
2022-12-24T02:43:41.379Z,100575.53
2022-12-24T02:46:12.883Z,100579.09
2022-12-24T02:48:42.618Z,100560.47
2022-12-24T02:51:11.182Z,100572.09
2022-12-24T02:53:39.240Z,100567.72
2022-12-24T02:56:23.631Z,100578.47
2022-12-24T02:59:34.680Z,100589.13
2022-12-24T03:02:04.302Z,100597.19
2022-12-24T03:04:44.118Z,100574.13
2022-12-24T03:07:21.398Z,100569.66
2022-12-24T03:10:18.461Z,100569.63
2022-12-24T03:12:50.534Z,100566.91
2022-12-24T03:15:21.585Z,100583.88
2022-12-24T03:17:51.316Z,100578.59
2022-12-24T03:20:22.541Z,100560.72
2022-12-24T03:22:50.189Z,100572.19
2022-12-24T03:25:17.308Z,100588.19
2022-12-24T03:27:44.708Z,100590.72
2022-12-24T03:30:14.279Z,100577.28
2022-12-24T03:32:41.472Z,100503.19
2022-12-24T03:35:09.067Z,100522.66
2022-12-24T03:37:35.816Z,100596.53
2022-12-24T03:40:05.271Z,100510.97
2022-12-24T03:42:31.909Z,100572.53
2022-12-24T03:44:58.511Z,100571.53
2022-12-24T03:47:25.065Z,100587.53
2022-12-24T03:49:52.672Z,100505.75
2022-12-24T03:52:19.263Z,100593.00
2022-12-24T03:54:45.788Z,100575.97
2022-12-24T03:57:12.415Z,100573.25
2022-12-24T03:59:38.988Z,100584.78
2022-12-24T04:02:05.767Z,100521.72
2022-12-24T04:04:33.518Z,100577.03
2022-12-24T04:07:00.497Z,100535.22
2022-12-24T04:09:27.095Z,100600.34
2022-12-24T04:11:53.611Z,100586.19
2022-12-24T04:14:20.121Z,100600.53
2022-12-24T04:16:46.772Z,100626.41
2022-12-24T04:19:13.388Z,100602.50
2022-12-24T04:21:39.940Z,100596.34
2022-12-24T04:24:06.620Z,100623.94
2022-12-24T04:26:33.213Z,100614.03
2022-12-24T04:28:59.754Z,100621.22
2022-12-24T04:31:26.298Z,100597.25
2022-12-24T04:33:53.303Z,100636.47
2022-12-24T04:36:20.607Z,100572.28
2022-12-24T04:38:48.532Z,100625.75
2022-12-24T04:41:23.351Z,100568.72
2022-12-24T04:43:53.821Z,100571.44
2022-12-24T04:46:26.055Z,100577.66
2022-12-24T04:48:54.492Z,100629.34
2022-12-24T04:51:21.512Z,100628.47
2022-12-24T04:53:48.093Z,100614.28
2022-12-24T04:56:20.658Z,100632.13
2022-12-24T04:58:48.260Z,100651.69
2022-12-24T05:01:18.849Z,100620.59
2022-12-24T05:03:46.193Z,100639.19
2022-12-24T05:06:17.200Z,100588.50
2022-12-24T05:08:43.935Z,100671.25
2022-12-24T05:11:14.234Z,100642.81
2022-12-24T05:13:46.542Z,100592.16
2022-12-24T05:16:15.901Z,100656.25
2022-12-24T05:18:42.524Z,100660.66
2022-12-24T05:21:11.053Z,100573.47
2022-12-24T05:23:56.757Z,100577.72
2022-12-24T05:26:34.565Z,100608.03
2022-12-24T05:29:03.026Z,100565.06
2022-12-24T05:31:31.375Z,100653.13
2022-12-24T05:33:58.043Z,100639.72
2022-12-24T05:36:24.884Z,100645.97
2022-12-24T05:38:51.586Z,100616.59
2022-12-24T05:41:18.641Z,100670.09
2022-12-24T05:43:46.397Z,100649.59
2022-12-24T05:46:15.893Z,100650.47
2022-12-24T05:48:42.574Z,100640.72
2022-12-24T05:51:12.122Z,100645.09
2022-12-24T05:53:39.100Z,100573.00
2022-12-24T05:56:18.392Z,100676.25
2022-12-24T05:58:45.377Z,100681.53
2022-12-24T06:01:12.821Z,100668.03
2022-12-24T06:03:39.785Z,100666.25
2022-12-24T06:06:09.754Z,100691.03
2022-12-24T06:08:37.365Z,100691.91
2022-12-24T06:11:07.582Z,100583.16
2022-12-24T06:13:35.027Z,100704.28
2022-12-24T06:16:03.789Z,100678.44
2022-12-24T06:18:32.762Z,100676.69
2022-12-24T06:21:00.682Z,100685.47
2022-12-24T06:23:29.989Z,100682.00
2022-12-24T06:25:59.189Z,100681.94
2022-12-24T06:28:25.761Z,100647.16
2022-12-24T06:30:57.132Z,100686.28
2022-12-24T06:33:27.579Z,100644.44
2022-12-24T06:35:54.171Z,100719.16
2022-12-24T06:38:20.672Z,100684.38
2022-12-24T06:40:47.757Z,100736.91
2022-12-24T06:43:15.124Z,100702.13
2022-12-24T06:45:48.547Z,100653.13
2022-12-24T06:48:15.839Z,100725.25
2022-12-24T06:50:42.853Z,100657.47
2022-12-24T06:53:10.271Z,100730.34
2022-12-24T06:55:37.319Z,100690.97
2022-12-24T06:58:04.608Z,100734.59
2022-12-24T07:00:31.305Z,100723.28
2022-12-24T07:02:58.048Z,100713.56
2022-12-24T07:05:24.694Z,100718.97
2022-12-24T07:07:51.293Z,100725.16
2022-12-24T07:10:19.542Z,100735.00
2022-12-24T07:12:46.460Z,100730.56
2022-12-24T07:15:13.887Z,100722.50
2022-12-24T07:17:40.560Z,100762.66
2022-12-24T07:20:12.245Z,100761.88
2022-12-24T07:22:38.766Z,100777.88
2022-12-24T07:25:05.776Z,100756.50
2022-12-24T07:27:32.358Z,100777.06
2022-12-24T07:29:58.867Z,100765.44
2022-12-24T07:32:25.404Z,100684.34
2022-12-24T07:34:51.963Z,100762.75
2022-12-24T07:37:18.503Z,100761.88
2022-12-24T07:39:45.289Z,100751.16
2022-12-24T07:42:11.885Z,100699.47
2022-12-24T07:44:39.567Z,100765.38
2022-12-24T07:47:06.213Z,100802.69
2022-12-24T07:49:32.831Z,100784.84
2022-12-24T07:51:59.419Z,100781.13
2022-12-24T07:54:26.067Z,100812.31
2022-12-24T07:56:52.652Z,100802.34
2022-12-24T07:59:19.154Z,100818.19
2022-12-24T08:01:46.489Z,100814.56
2022-12-24T08:04:13.531Z,100794.88
2022-12-24T08:06:40.244Z,100806.53
2022-12-24T08:09:07.126Z,100832.28
2022-12-24T08:11:33.755Z,100827.00
2022-12-24T08:14:00.274Z,100747.84
2022-12-24T08:16:26.913Z,100845.91
2022-12-24T08:18:53.478Z,100845.00
2022-12-24T08:21:19.991Z,100856.56
2022-12-24T08:23:47.692Z,100873.56
2022-12-24T08:26:15.612Z,100864.66
2022-12-24T08:28:42.498Z,100788.13
2022-12-24T08:31:09.229Z,100848.84
2022-12-24T08:33:35.882Z,100892.41
2022-12-24T08:36:03.043Z,100883.66
2022-12-24T08:38:29.567Z,100898.69
2022-12-24T08:40:56.152Z,100855.97
2022-12-24T08:43:23.416Z,100907.66
2022-12-24T08:45:50.341Z,100893.38
2022-12-24T08:48:17.311Z,100909.47
2022-12-24T08:50:44.310Z,100886.34
2022-12-24T08:53:11.041Z,100869.34
2022-12-24T08:55:37.745Z,100894.38
2022-12-24T08:58:04.465Z,100891.66
2022-12-24T09:00:31.074Z,100881.03
2022-12-24T09:02:58.045Z,100905.13
2022-12-24T09:05:25.959Z,100906.00
2022-12-24T09:07:52.698Z,100923.91
2022-12-24T09:10:19.281Z,100914.09
2022-12-24T09:12:45.775Z,100861.41
2022-12-24T09:15:14.095Z,100927.38
2022-12-24T09:17:41.102Z,100836.50
2022-12-24T09:20:08.694Z,100854.47
2022-12-24T09:22:37.387Z,100938.28
2022-12-24T09:25:06.180Z,100892.72
2022-12-24T09:27:32.945Z,100935.00
2022-12-24T09:29:59.480Z,100946.16
2022-12-24T09:32:25.993Z,100935.69
2022-12-24T09:34:52.530Z,100872.50
2022-12-24T09:37:19.362Z,100855.34
2022-12-24T09:39:45.833Z,100949.75
2022-12-24T09:42:27.918Z,100937.97
2022-12-24T09:45:01.379Z,100956.50
2022-12-24T09:47:52.763Z,100982.22
2022-12-24T09:50:37.963Z,100948.22
2022-12-24T09:53:12.971Z,100966.16
2022-12-24T09:55:51.957Z,100915.25
2022-12-24T09:58:34.949Z,100982.41
2022-12-24T10:01:01.654Z,100996.00
2022-12-24T10:03:28.447Z,100983.50
2022-12-24T10:06:27.019Z,101003.09
2022-12-24T10:09:01.813Z,101007.56
2022-12-24T10:11:28.243Z,101018.38
2022-12-24T10:14:16.500Z,101012.72
2022-12-24T10:16:58.447Z,101002.47
2022-12-24T10:20:07.532Z,101009.75
2022-12-24T10:23:07.941Z,101018.63
2022-12-24T10:25:43.192Z,100944.72
2022-12-24T10:28:22.040Z,101020.44
2022-12-24T10:30:53.894Z,100996.34
2022-12-24T10:33:32.914Z,100944.56
2022-12-24T10:35:59.544Z,100909.88
2022-12-24T10:38:26.803Z,100991.00
2022-12-24T10:40:56.379Z,100994.56
2022-12-24T10:43:25.325Z,100962.41
2022-12-24T10:45:56.700Z,100997.16
2022-12-24T10:48:35.181Z,100998.84
2022-12-24T10:51:21.903Z,100984.53
2022-12-24T10:53:51.456Z,101020.06
2022-12-24T10:56:20.387Z,100936.94
2022-12-24T10:58:53.967Z,101026.03
2022-12-24T11:01:41.525Z,100925.97
2022-12-24T11:04:17.024Z,101023.19
2022-12-24T11:07:01.543Z,101008.84
2022-12-24T11:09:39.391Z,101016.78
2022-12-24T11:12:15.514Z,101023.97
2022-12-24T11:14:42.627Z,100996.25
2022-12-24T11:17:20.664Z,100994.28
2022-12-24T11:19:49.640Z,100942.53
2022-12-24T11:22:24.736Z,100944.44
2022-12-24T11:25:19.773Z,100946.38
2022-12-24T11:27:51.706Z,100942.84
2022-12-24T11:30:23.095Z,101026.69
2022-12-24T11:33:09.848Z,101026.78
2022-12-24T11:35:45.052Z,101000.09
2022-12-24T11:38:17.704Z,101008.94
2022-12-24T11:40:47.568Z,100956.38
2022-12-24T11:43:18.038Z,101006.38
2022-12-24T11:45:51.107Z,101001.06
2022-12-24T11:48:34.756Z,101034.09
2022-12-24T11:51:07.376Z,101024.25
2022-12-24T11:54:09.416Z,101035.78
2022-12-24T11:56:47.265Z,101028.41
2022-12-24T11:59:33.974Z,101041.88
2022-12-24T12:02:15.556Z,101018.13
2022-12-24T12:04:46.013Z,101012.09
2022-12-24T12:07:18.045Z,100951.41
2022-12-24T12:09:50.561Z,100903.13
2022-12-24T12:12:28.767Z,101044.06
2022-12-24T12:15:00.702Z,101005.81
2022-12-24T12:17:43.808Z,101011.13
2022-12-24T12:20:31.223Z,101037.94
2022-12-24T12:23:03.861Z,101026.34
2022-12-24T12:25:36.366Z,101049.50
2022-12-24T12:28:13.796Z,101023.50
2022-12-24T12:30:41.048Z,101042.03
2022-12-24T12:33:21.360Z,101059.94
2022-12-24T12:35:49.017Z,101057.44
2022-12-24T12:38:22.812Z,101037.00
2022-12-24T12:41:05.463Z,101062.97
2022-12-24T12:44:04.112Z,101064.88
2022-12-24T12:46:54.892Z,101060.34
2022-12-24T12:49:52.554Z,101008.63
2022-12-24T12:52:37.829Z,101072.91
2022-12-24T12:55:24.328Z,100993.47
2022-12-24T12:57:56.230Z,101041.44
2022-12-24T13:00:23.616Z,101055.56
2022-12-24T13:03:12.519Z,101010.06
2022-12-24T13:06:06.976Z,101078.16
2022-12-24T13:09:09.240Z,101082.75
2022-12-24T13:11:52.524Z,101069.28
2022-12-24T13:14:27.950Z,101114.78
2022-12-24T13:17:17.140Z,101078.75
2022-12-24T13:20:05.275Z,101109.75
2022-12-24T13:22:31.882Z,101103.38
2022-12-24T13:24:58.499Z,101012.22
2022-12-24T13:27:28.670Z,101123.81
2022-12-24T13:30:06.957Z,101130.22
2022-12-24T13:32:47.001Z,101101.06
2022-12-24T13:35:19.541Z,101124.34
2022-12-24T13:37:46.631Z,101116.34
2022-12-24T13:40:21.864Z,101027.22
2022-12-24T13:42:58.489Z,101041.50
2022-12-24T13:45:34.252Z,101128.78
2022-12-24T13:48:22.228Z,101061.56
2022-12-24T13:50:52.807Z,101082.53
2022-12-24T13:53:32.501Z,101025.91
2022-12-24T13:56:29.983Z,101107.81
2022-12-24T13:59:17.050Z,101130.75
2022-12-24T14:01:44.940Z,101148.47
2022-12-24T14:04:24.637Z,101054.66
2022-12-24T14:06:54.397Z,101143.03
2022-12-24T14:09:25.006Z,101129.50
2022-12-24T14:12:03.700Z,101081.28
2022-12-24T14:14:36.204Z,101152.94
2022-12-24T14:17:26.815Z,101137.06
2022-12-24T14:19:59.449Z,101144.72
2022-12-24T14:22:28.744Z,101161.44
2022-12-24T14:24:59.007Z,101155.75
2022-12-24T14:27:38.961Z,101088.34
2022-12-24T14:30:20.533Z,101046.16
2022-12-24T14:32:48.150Z,101159.63
2022-12-24T14:35:23.293Z,101164.63
2022-12-24T14:38:00.436Z,101134.25
2022-12-24T14:40:30.001Z,101138.53
2022-12-24T14:43:14.083Z,101167.88
2022-12-24T14:45:48.730Z,101152.41
2022-12-24T14:48:27.114Z,101176.34
2022-12-24T14:51:12.648Z,101183.16
2022-12-24T14:53:54.306Z,101170.38
2022-12-24T14:56:22.552Z,101189.63
2022-12-24T14:58:49.849Z,101170.72
2022-12-24T15:01:26.754Z,101089.66
2022-12-24T15:04:11.614Z,101200.25
2022-12-24T15:06:41.981Z,101118.28
2022-12-24T15:09:19.373Z,101168.00
2022-12-24T15:11:48.323Z,101198.84
2022-12-24T15:14:17.152Z,101172.69
2022-12-24T15:17:02.776Z,101199.81
2022-12-24T15:19:35.821Z,101215.66
2022-12-24T15:22:04.025Z,101157.03
2022-12-24T15:24:36.454Z,101210.28
2022-12-24T15:27:17.265Z,101217.84
2022-12-24T15:29:46.730Z,101220.13
2022-12-24T15:32:15.830Z,101213.38
2022-12-24T15:34:47.918Z,101228.81
2022-12-24T15:37:37.105Z,101230.25
2022-12-24T15:40:19.502Z,101236.88
2022-12-24T15:42:46.377Z,101224.91
2022-12-24T15:45:23.200Z,101219.13
2022-12-24T15:47:57.495Z,101201.97
2022-12-24T15:50:35.580Z,101210.59
2022-12-24T15:53:24.743Z,101243.97
2022-12-24T15:56:06.653Z,101254.97
2022-12-24T15:58:36.205Z,101206.47
2022-12-24T16:01:28.220Z,101212.38
2022-12-24T16:03:58.332Z,101232.72
2022-12-24T16:06:25.776Z,101242.09
2022-12-24T16:08:52.286Z,101138.66
2022-12-24T16:11:24.702Z,101253.34
2022-12-24T16:13:51.171Z,101249.75
2022-12-24T16:16:31.325Z,101129.22
2022-12-24T16:18:59.724Z,101253.03
2022-12-24T16:21:31.704Z,101257.41
2022-12-24T16:24:26.511Z,101263.47
2022-12-24T16:26:53.745Z,101254.38
2022-12-24T16:29:20.529Z,101162.88
2022-12-24T16:31:51.470Z,101178.06
2022-12-24T16:34:18.504Z,101244.47
2022-12-24T16:36:46.367Z,101263.69
2022-12-24T16:39:24.982Z,101259.09
2022-12-24T16:42:11.576Z,101248.47
2022-12-24T16:44:38.716Z,101252.13
2022-12-24T16:47:24.135Z,101268.00
2022-12-24T16:49:51.258Z,101268.13
2022-12-24T16:52:23.681Z,101175.63
2022-12-24T16:54:50.666Z,101199.03
2022-12-24T16:57:17.631Z,101151.44
2022-12-24T16:59:44.556Z,101216.75
2022-12-24T17:02:14.911Z,101185.38
2022-12-24T17:04:42.798Z,101196.88
2022-12-24T17:07:14.078Z,101273.28
2022-12-24T17:09:41.038Z,101283.06
2022-12-24T17:12:07.852Z,101267.84
2022-12-24T17:14:34.416Z,101247.97
2022-12-24T17:17:00.932Z,101272.09
2022-12-24T17:19:27.403Z,101269.41
2022-12-24T17:21:53.845Z,101272.81
2022-12-24T17:24:20.321Z,101277.25
2022-12-24T17:26:46.795Z,101271.97
2022-12-24T17:29:13.318Z,101275.41
2022-12-24T17:31:40.774Z,101182.75
2022-12-24T17:34:07.374Z,101265.13
2022-12-24T17:36:34.487Z,101187.97
2022-12-24T17:39:01.111Z,101287.75
2022-12-24T17:41:27.740Z,101281.53
2022-12-24T17:43:54.285Z,101294.78
2022-12-24T17:46:22.805Z,101218.09
2022-12-24T17:48:52.845Z,101247.81
2022-12-24T17:51:22.565Z,101205.53
2022-12-24T17:53:50.265Z,101240.75
2022-12-24T17:56:17.605Z,101271.53
2022-12-24T17:58:45.675Z,101265.34
2022-12-24T18:01:18.555Z,101276.38
2022-12-24T18:03:46.000Z,101262.78
2022-12-24T18:06:13.558Z,101287.25
2022-12-24T18:08:41.516Z,101277.59
2022-12-24T18:11:20.077Z,101274.84
2022-12-24T18:13:47.817Z,101287.09
2022-12-24T18:16:14.333Z,101279.06
2022-12-24T18:18:40.874Z,101272.53
2022-12-24T18:21:07.447Z,101207.00
2022-12-24T18:23:33.963Z,101169.25
2022-12-24T18:26:05.677Z,101290.09
2022-12-24T18:28:32.655Z,101258.59
2022-12-24T18:31:08.471Z,101285.06
2022-12-24T18:33:36.014Z,101288.56
2022-12-24T18:36:03.197Z,101270.56
2022-12-24T18:38:30.283Z,101178.78
2022-12-24T18:41:02.726Z,101274.84
2022-12-24T18:43:29.257Z,101282.16
2022-12-24T18:45:55.744Z,101269.81
2022-12-24T18:48:22.278Z,101238.22
2022-12-24T18:50:55.443Z,101170.03
2022-12-24T18:53:21.952Z,101275.06
2022-12-24T18:55:48.448Z,101261.66
2022-12-24T18:58:14.937Z,101269.56
2022-12-24T19:00:41.475Z,101207.69
2022-12-24T19:03:08.182Z,101261.53
2022-12-24T19:05:35.258Z,101275.97
2022-12-24T19:08:10.966Z,101258.84
2022-12-24T19:10:48.414Z,101259.78
2022-12-24T19:13:14.925Z,101281.25
2022-12-24T19:15:41.969Z,101268.53
2022-12-24T19:18:08.515Z,101263.22
2022-12-24T19:20:38.568Z,101274.84
2022-12-24T19:23:06.877Z,101275.72
2022-12-24T19:25:34.268Z,101262.25
2022-12-24T19:28:01.720Z,101205.50
2022-12-24T19:30:28.224Z,101284.72
2022-12-24T19:32:54.678Z,101273.22
2022-12-24T19:35:21.170Z,101277.00
2022-12-24T19:37:47.647Z,101170.03
2022-12-24T19:40:14.247Z,101284.19
2022-12-24T19:42:40.751Z,101267.34
2022-12-24T19:45:08.265Z,101281.91
2022-12-24T19:47:34.717Z,101235.22
2022-12-24T19:50:01.170Z,101278.59
2022-12-24T19:52:27.638Z,101186.97
2022-12-24T19:54:54.143Z,101167.44
2022-12-24T19:57:20.812Z,101274.56
2022-12-24T19:59:47.252Z,101273.66
2022-12-24T20:02:13.961Z,101242.34
2022-12-24T20:04:40.721Z,101240.59
2022-12-24T20:07:07.327Z,101290.19
2022-12-24T20:09:34.011Z,101193.06
2022-12-24T20:12:01.053Z,101249.88
2022-12-24T20:14:28.580Z,101283.22
2022-12-24T20:16:55.474Z,101304.75
2022-12-24T20:19:22.363Z,101300.44
2022-12-24T20:21:48.951Z,101288.31
2022-12-24T20:24:15.626Z,101307.00
2022-12-24T20:26:42.391Z,101235.34
2022-12-24T20:29:10.604Z,101274.31
2022-12-24T20:31:38.030Z,101322.38
2022-12-24T20:34:07.279Z,101247.03
2022-12-24T20:36:34.816Z,101258.22
2022-12-24T20:39:01.545Z,101316.03
2022-12-24T20:41:29.721Z,101330.31
2022-12-24T20:44:00.795Z,101323.13
2022-12-24T20:46:27.892Z,101318.03
2022-12-24T20:48:55.591Z,101323.75
2022-12-24T20:51:25.342Z,101321.50
2022-12-24T20:53:53.728Z,101321.25
2022-12-24T20:56:20.811Z,101310.09
2022-12-24T20:58:47.896Z,101271.88
2022-12-24T21:01:20.751Z,101216.91
2022-12-24T21:03:47.741Z,101287.19
2022-12-24T21:06:17.666Z,101230.59
2022-12-24T21:08:45.507Z,101293.22
2022-12-24T21:11:30.631Z,101271.81
2022-12-24T21:13:57.172Z,101197.28
2022-12-24T21:16:23.860Z,101285.94
2022-12-24T21:18:50.517Z,101196.81
2022-12-24T21:21:17.594Z,101274.84
2022-12-24T21:23:44.257Z,101276.00
2022-12-24T21:26:10.872Z,101188.94
2022-12-24T21:28:37.416Z,101256.47
2022-12-24T21:31:10.330Z,101266.44
2022-12-24T21:33:38.459Z,101269.28
2022-12-24T21:36:06.446Z,101184.19
2022-12-24T21:38:33.714Z,101265.03
2022-12-24T21:41:09.609Z,101230.09
2022-12-24T21:43:37.060Z,101244.75
2022-12-24T21:46:12.023Z,101152.63
2022-12-24T21:48:57.701Z,101216.41
2022-12-24T21:51:25.510Z,101187.97
2022-12-24T21:54:10.798Z,101169.97
2022-12-24T21:56:57.595Z,101128.63
2022-12-24T21:59:27.089Z,101245.97
2022-12-24T22:01:54.687Z,101237.84
2022-12-24T22:04:21.384Z,101204.47
2022-12-24T22:07:06.437Z,101251.81
2022-12-24T22:09:51.620Z,101252.56
2022-12-24T22:12:18.309Z,101238.22
2022-12-24T22:14:44.988Z,101220.06
2022-12-24T22:17:11.548Z,101240.34
2022-12-24T22:19:38.083Z,101243.94
2022-12-24T22:22:04.632Z,101203.31
2022-12-24T22:24:31.121Z,101262.78
2022-12-24T22:26:57.936Z,101256.50
2022-12-24T22:29:24.859Z,101250.94
2022-12-24T22:31:51.390Z,101251.47
2022-12-24T22:34:17.883Z,101246.94
2022-12-24T22:36:44.321Z,101251.94
2022-12-24T22:39:10.813Z,101256.34
2022-12-24T22:41:37.312Z,101217.78
2022-12-24T22:44:03.886Z,101144.38
2022-12-24T22:46:30.413Z,101238.91
2022-12-24T22:48:56.933Z,101205.59
2022-12-24T22:51:23.498Z,101233.34
2022-12-24T22:53:50.298Z,101231.72
2022-12-24T22:56:20.946Z,101224.97
2022-12-24T22:58:54.398Z,101260.72
2022-12-24T23:01:35.266Z,101248.31
2022-12-24T23:04:02.406Z,101259.41
2022-12-24T23:06:29.352Z,101244.19
2022-12-24T23:08:55.915Z,101260.50
2022-12-24T23:11:22.545Z,101230.03
2022-12-24T23:14:07.624Z,101256.97
2022-12-24T23:16:34.162Z,101241.97
2022-12-24T23:19:01.993Z,101204.25
2022-12-24T23:21:29.336Z,101176.50
2022-12-24T23:24:00.519Z,101160.41
2022-12-24T23:26:28.794Z,101222.06
2022-12-24T23:28:56.134Z,101267.31
2022-12-24T23:31:23.810Z,101265.56
2022-12-24T23:33:50.512Z,101263.09
2022-12-24T23:36:17.580Z,101283.63
2022-12-24T23:38:44.152Z,101273.16
2022-12-24T23:41:11.466Z,101281.41
2022-12-24T23:43:38.164Z,101277.97
2022-12-24T23:46:04.976Z,101263.84
2022-12-24T23:48:31.472Z,101293.28
2022-12-24T23:51:06.858Z,101275.72
2022-12-24T23:53:33.550Z,101269.06
2022-12-24T23:56:00.355Z,101282.72
2022-12-24T23:58:27.263Z,101272.38
